createdAt,value
2019-01-20T03:31:07.652Z,6.00
2019-01-20T03:33:36.909Z,6.60
2019-01-20T03:36:06.213Z,7.00
2019-01-20T03:38:35.470Z,7.00
2019-01-20T03:41:06.413Z,6.70
2019-01-20T03:43:35.734Z,7.10
2019-01-20T03:46:05.023Z,6.70
2019-01-20T03:48:34.604Z,7.00
2019-01-20T03:51:04.400Z,6.57
2019-01-20T03:53:33.691Z,6.13
2019-01-20T03:56:04.504Z,7.00
2019-01-20T03:58:33.772Z,6.87
2019-01-20T04:01:05.199Z,6.80
2019-01-20T04:03:34.496Z,6.90
2019-01-20T04:06:05.706Z,7.33
2019-01-20T04:08:35.009Z,7.20
2019-01-20T04:11:04.316Z,7.23
2019-01-20T04:13:33.816Z,7.53
2019-01-20T04:16:05.313Z,7.27
2019-01-20T04:18:34.563Z,7.03
2019-01-20T04:21:04.135Z,6.60
2019-01-20T04:23:33.423Z,7.20
2019-01-20T04:26:03.960Z,6.13
2019-01-20T04:28:33.268Z,7.07
2019-01-20T04:31:04.794Z,6.43
2019-01-20T04:33:34.039Z,7.20
2019-01-20T04:36:04.147Z,6.60
2019-01-20T04:38:34.520Z,6.20
2019-01-20T04:41:08.043Z,6.00
2019-01-20T04:43:37.336Z,6.17
2019-01-20T04:46:06.597Z,6.00
2019-01-20T04:48:35.920Z,5.97
2019-01-20T04:51:06.073Z,5.67
2019-01-20T04:53:37.126Z,6.30
2019-01-20T04:56:06.432Z,6.13
2019-01-20T04:58:35.966Z,5.80
2019-01-20T05:01:05.271Z,5.93
2019-01-20T05:03:34.851Z,5.50
2019-01-20T05:06:05.566Z,6.17
2019-01-20T05:08:34.873Z,6.30
2019-01-20T05:11:06.114Z,5.70
2019-01-20T05:13:36.503Z,5.70
2019-01-20T05:16:05.767Z,5.50
2019-01-20T05:18:35.678Z,5.80
2019-01-20T05:21:05.028Z,6.10
2019-01-20T05:23:34.750Z,5.83
2019-01-20T05:26:05.438Z,5.83
2019-01-20T05:28:35.343Z,6.23
2019-01-20T05:31:04.643Z,5.87
2019-01-20T05:33:33.896Z,6.63
2019-01-20T05:36:06.201Z,6.23
2019-01-20T05:38:36.173Z,6.70
2019-01-20T05:41:06.210Z,6.33
2019-01-20T05:43:35.508Z,6.50
2019-01-20T05:46:05.443Z,6.97
2019-01-20T05:48:36.036Z,6.47
2019-01-20T05:51:05.644Z,6.33
2019-01-20T05:53:34.927Z,6.70
2019-01-20T05:56:04.763Z,6.83
2019-01-20T05:58:34.093Z,6.70
2019-01-20T06:01:03.920Z,7.50
2019-01-20T06:03:34.166Z,7.67
2019-01-20T06:06:04.181Z,7.30
2019-01-20T06:08:34.189Z,7.27
2019-01-20T06:11:05.761Z,7.30
2019-01-20T06:13:36.416Z,8.47
2019-01-20T06:16:05.667Z,8.37
2019-01-20T06:18:35.787Z,7.57
2019-01-20T06:21:05.427Z,6.87
2019-01-20T06:23:35.333Z,7.00
2019-01-20T06:26:06.012Z,7.63
2019-01-20T06:28:35.463Z,7.57
2019-01-20T06:31:04.827Z,7.20
2019-01-20T06:33:34.957Z,7.40
2019-01-20T06:36:06.696Z,7.17
2019-01-20T06:38:36.511Z,7.17
2019-01-20T06:41:06.451Z,7.07
2019-01-20T06:43:35.772Z,7.07
2019-01-20T06:46:05.343Z,7.07
2019-01-20T06:48:36.678Z,6.63
2019-01-20T06:51:06.016Z,7.40
2019-01-20T06:53:35.311Z,6.60
2019-01-20T06:56:05.635Z,6.90
2019-01-20T06:58:35.896Z,7.23
2019-01-20T07:01:05.157Z,7.33
2019-01-20T07:03:34.704Z,7.57
2019-01-20T07:06:05.079Z,7.47
2019-01-20T07:08:34.331Z,7.93
2019-01-20T07:11:06.395Z,7.93
2019-01-20T07:13:35.652Z,7.27
2019-01-20T07:16:05.690Z,7.50
2019-01-20T07:18:34.948Z,8.37
2019-01-20T07:21:05.227Z,8.40
2019-01-20T07:23:34.492Z,8.00
2019-01-20T07:26:04.156Z,8.63
2019-01-20T07:28:33.904Z,8.17
2019-01-20T07:31:03.726Z,8.30
2019-01-20T07:33:33.595Z,7.90
2019-01-20T07:36:02.843Z,8.63
2019-01-20T07:38:32.711Z,8.40
2019-01-20T07:41:02.239Z,9.03
2019-01-20T07:43:32.749Z,9.07
2019-01-20T07:46:04.048Z,8.60
2019-01-20T07:48:33.912Z,9.00
2019-01-20T07:51:04.540Z,9.47
2019-01-20T07:53:34.115Z,9.63
2019-01-20T07:56:03.372Z,8.67
2019-01-20T07:58:32.799Z,8.47
2019-01-20T08:01:04.056Z,9.10
2019-01-20T08:03:33.680Z,8.43
2019-01-20T08:06:04.139Z,9.47
2019-01-20T08:08:33.968Z,8.57
2019-01-20T08:11:04.072Z,9.17
2019-01-20T08:13:33.325Z,9.60
2019-01-20T08:16:04.079Z,9.67
2019-01-20T08:18:33.415Z,9.80
2019-01-20T08:21:03.291Z,10.13
2019-01-20T08:23:32.835Z,9.50
2019-01-20T08:26:02.435Z,10.40
2019-01-20T08:28:31.756Z,12.37
2019-01-20T08:31:01.094Z,12.30
2019-01-20T08:33:31.415Z,12.03
2019-01-20T08:36:00.678Z,15.00
2019-01-20T08:38:29.940Z,15.13
2019-01-20T08:40:59.275Z,14.40
2019-01-20T08:43:31.976Z,13.57
2019-01-20T08:46:08.843Z,13.10
2019-01-20T08:48:38.444Z,12.13
2019-01-20T08:51:07.833Z,12.13
2019-01-20T08:53:37.764Z,11.87
2019-01-20T08:56:07.024Z,11.53
2019-01-20T08:58:36.335Z,11.23
2019-01-20T09:01:05.635Z,10.73
2019-01-20T09:03:34.896Z,10.63
2019-01-20T09:06:04.270Z,11.00
2019-01-20T09:08:33.880Z,11.50
2019-01-20T09:11:04.559Z,11.77
2019-01-20T09:13:39.519Z,12.33
2019-01-20T09:16:05.216Z,12.20
2019-01-20T09:18:34.478Z,12.13
2019-01-20T09:21:04.316Z,12.53
2019-01-20T09:23:33.614Z,12.00
2019-01-20T09:26:04.040Z,13.00
2019-01-20T09:28:33.877Z,12.27
2019-01-20T09:31:03.930Z,11.77
2019-01-20T09:33:33.452Z,11.17
2019-01-20T09:36:02.708Z,13.47
2019-01-20T09:38:33.018Z,13.07
2019-01-20T09:41:05.082Z,13.00
2019-01-20T09:43:34.857Z,13.33
2019-01-20T09:46:04.189Z,12.97
2019-01-20T09:48:33.764Z,13.73
2019-01-20T09:51:03.863Z,12.80
2019-01-20T09:53:33.120Z,13.00
2019-01-20T09:56:02.384Z,12.70
2019-01-20T09:58:31.996Z,14.37
2019-01-20T10:01:02.832Z,13.07
2019-01-20T10:03:32.136Z,13.07
2019-01-20T10:06:03.486Z,13.30
2019-01-20T10:08:33.357Z,13.27
2019-01-20T10:11:04.034Z,14.17
2019-01-20T10:13:33.641Z,13.10
2019-01-20T10:16:03.467Z,12.40
2019-01-20T10:18:32.772Z,11.77
2019-01-20T10:21:02.671Z,13.13
2019-01-20T10:23:31.939Z,13.40
2019-01-20T10:26:03.310Z,12.17
2019-01-20T10:28:33.548Z,12.17
2019-01-20T10:31:05.972Z,11.33
2019-01-20T10:33:36.350Z,12.40
2019-01-20T10:36:07.148Z,12.37
2019-01-20T10:38:37.425Z,13.17
2019-01-20T10:41:12.532Z,12.87
2019-01-20T10:43:42.667Z,13.07
2019-01-20T10:46:12.493Z,12.47
2019-01-20T10:48:41.783Z,12.40
2019-01-20T10:51:11.071Z,12.60
2019-01-20T10:53:40.372Z,12.77
2019-01-20T10:56:09.624Z,12.50
2019-01-20T10:58:38.880Z,13.00
2019-01-20T11:01:08.178Z,14.53
2019-01-20T11:03:37.436Z,14.90
2019-01-20T11:06:06.800Z,13.43
2019-01-20T11:08:36.402Z,13.50
2019-01-20T11:11:05.701Z,12.33
2019-01-20T11:13:34.971Z,13.73
2019-01-20T11:16:04.227Z,13.43
2019-01-20T11:18:34.104Z,12.27
2019-01-20T11:21:09.840Z,12.73
2019-01-20T11:23:39.210Z,12.03
2019-01-20T11:26:08.523Z,12.03
2019-01-20T11:28:37.738Z,11.90
2019-01-20T11:31:07.380Z,12.75
2019-01-20T11:33:36.631Z,11.87
2019-01-20T11:36:06.192Z,11.77
2019-01-20T11:38:35.488Z,12.13
2019-01-20T11:41:05.455Z,11.83
2019-01-20T11:43:34.712Z,13.47
2019-01-20T11:46:04.008Z,11.90
2019-01-20T11:48:33.655Z,11.57
2019-01-20T11:51:03.839Z,12.03
2019-01-20T11:53:33.144Z,13.90
2019-01-20T11:56:03.572Z,12.40
2019-01-20T11:58:33.690Z,12.13
2019-01-20T12:01:02.983Z,11.37
2019-01-20T12:03:32.244Z,11.47
2019-01-20T12:06:04.152Z,12.13
2019-01-20T12:08:33.665Z,12.27
2019-01-20T12:11:03.863Z,11.80
2019-01-20T12:13:52.543Z,11.70
2019-01-20T12:16:22.513Z,12.03
2019-01-20T12:18:52.068Z,11.57
2019-01-20T12:21:21.324Z,12.13
2019-01-20T12:23:50.891Z,12.33
2019-01-20T12:26:20.148Z,11.77
2019-01-20T12:28:50.544Z,11.70
2019-01-20T12:31:20.729Z,11.43
2019-01-20T12:33:50.695Z,12.20
2019-01-20T12:36:20.569Z,11.87
2019-01-20T12:38:49.871Z,11.87
2019-01-20T12:41:19.169Z,12.40
2019-01-20T12:43:49.104Z,12.30
2019-01-20T12:46:19.071Z,12.47
2019-01-20T12:48:48.320Z,11.87
2019-01-20T12:51:17.575Z,12.37
2019-01-20T12:53:46.880Z,12.63
2019-01-20T12:56:16.132Z,12.03
2019-01-20T12:58:45.704Z,11.97
2019-01-20T13:01:15.016Z,11.70
2019-01-20T13:03:44.272Z,12.20
2019-01-20T13:06:13.528Z,13.23
2019-01-20T13:08:42.839Z,12.67
2019-01-20T13:11:12.417Z,12.53
2019-01-20T13:13:42.404Z,12.70
2019-01-20T13:16:11.703Z,14.33
2019-01-20T13:18:40.951Z,13.13
2019-01-20T13:21:10.819Z,13.00
2019-01-20T13:23:40.250Z,11.73
2019-01-20T13:26:10.175Z,13.53
2019-01-20T13:28:39.427Z,14.17
2019-01-20T13:31:09.303Z,12.90
2019-01-20T13:33:40.043Z,13.13
2019-01-20T13:36:09.339Z,12.40
2019-01-20T13:38:40.342Z,13.53
2019-01-20T13:41:09.976Z,12.17
2019-01-20T13:43:39.288Z,13.80
2019-01-20T13:46:08.676Z,13.00
2019-01-20T13:48:37.975Z,14.87
2019-01-20T13:51:07.805Z,15.60
2019-01-20T13:53:38.374Z,12.63
2019-01-20T13:56:07.775Z,12.23
2019-01-20T13:58:37.032Z,13.53
2019-01-20T14:01:06.639Z,14.35
2019-01-20T14:03:35.909Z,13.18
2019-01-20T14:06:06.292Z,13.73
2019-01-20T14:08:44.034Z,12.67
2019-01-20T14:11:07.744Z,13.10
2019-01-20T14:13:37.044Z,12.50
2019-01-20T14:16:06.644Z,13.27
2019-01-20T14:18:36.571Z,13.53
2019-01-20T14:21:05.900Z,14.17
2019-01-20T14:23:35.190Z,12.43
2019-01-20T14:26:05.776Z,13.20
2019-01-20T14:28:35.031Z,13.47
2019-01-20T14:31:04.332Z,12.80
2019-01-20T14:33:33.631Z,12.87
2019-01-20T14:36:05.092Z,13.63
2019-01-20T14:38:34.404Z,13.47
2019-01-20T14:41:04.575Z,13.57
2019-01-20T14:43:33.872Z,14.23
2019-01-20T14:46:03.488Z,14.13
2019-01-20T14:48:33.316Z,14.20
2019-01-20T14:51:02.909Z,19.03
2019-01-20T14:53:33.236Z,15.73
2019-01-20T14:56:03.869Z,14.97
2019-01-20T14:58:33.790Z,13.90
2019-01-20T15:01:04.703Z,14.80
2019-01-20T15:03:33.963Z,14.37
2019-01-20T15:06:03.410Z,13.60
2019-01-20T15:08:32.668Z,14.17
2019-01-20T15:11:02.851Z,13.50
2019-01-20T15:13:33.640Z,14.20
2019-01-20T15:16:05.607Z,13.50
2019-01-20T15:18:35.159Z,13.57
2019-01-20T15:21:06.203Z,14.63
2019-01-20T15:23:36.125Z,14.80
2019-01-20T15:26:05.472Z,14.80
2019-01-20T15:28:34.787Z,15.00
2019-01-20T15:31:05.471Z,14.97
2019-01-20T15:33:34.773Z,15.73
2019-01-20T15:36:05.288Z,15.03
2019-01-20T15:38:34.540Z,14.60
2019-01-20T15:41:04.715Z,14.40
2019-01-20T15:43:33.977Z,14.90
2019-01-20T15:46:03.232Z,14.77
2019-01-20T15:48:32.540Z,14.87
2019-01-20T15:51:02.421Z,14.73
2019-01-20T15:53:32.245Z,14.00
2019-01-20T15:56:01.751Z,14.63
2019-01-20T15:58:31.459Z,13.90
2019-01-20T16:01:00.760Z,15.17
2019-01-20T16:03:30.584Z,14.93
2019-01-20T16:06:00.556Z,13.97
2019-01-20T16:08:30.040Z,15.33
2019-01-20T16:10:59.294Z,14.00
2019-01-20T16:13:29.269Z,14.03
2019-01-20T16:15:58.524Z,14.40
2019-01-20T16:18:27.780Z,14.73
2019-01-20T16:20:58.039Z,15.30
2019-01-20T16:23:27.292Z,16.40
2019-01-20T16:25:56.611Z,14.37
2019-01-20T16:28:26.159Z,13.27
2019-01-20T16:30:56.968Z,12.33
2019-01-20T16:33:26.896Z,11.87
2019-01-20T16:35:56.204Z,11.40
2019-01-20T16:38:25.812Z,11.70
2019-01-20T16:40:55.637Z,12.17
2019-01-20T16:43:24.931Z,14.60
2019-01-20T16:45:55.476Z,14.23
2019-01-20T16:48:24.731Z,13.17
2019-01-20T16:50:54.550Z,13.07
2019-01-20T16:53:23.844Z,14.03
2019-01-20T16:55:53.480Z,15.33
2019-01-20T16:58:22.788Z,14.70
2019-01-20T17:00:52.043Z,14.50
2019-01-20T17:03:21.872Z,15.67
2019-01-20T17:05:52.012Z,15.30
2019-01-20T17:08:21.340Z,15.37
2019-01-20T17:10:50.932Z,14.83
2019-01-20T17:13:20.320Z,15.53
2019-01-20T17:15:50.208Z,15.03
2019-01-20T17:18:20.027Z,15.93
2019-01-20T17:20:49.896Z,16.83
2019-01-20T17:23:19.999Z,16.37
2019-01-20T17:25:49.248Z,16.43
2019-01-20T17:28:18.551Z,15.83
2019-01-20T17:30:48.430Z,16.23
2019-01-20T17:33:17.683Z,15.50
2019-01-20T17:35:46.985Z,15.07
2019-01-20T17:38:16.489Z,14.67
2019-01-20T17:40:46.352Z,14.03
2019-01-20T17:43:15.607Z,15.47
2019-01-20T17:45:48.605Z,14.53
2019-01-20T17:48:15.780Z,14.07
2019-01-20T17:50:45.095Z,14.30
2019-01-20T17:53:14.350Z,13.63
2019-01-20T17:55:44.673Z,14.77
2019-01-20T17:58:13.977Z,14.50
2019-01-20T18:00:44.922Z,14.87
2019-01-20T18:03:14.739Z,15.50
2019-01-20T18:05:44.737Z,14.37
2019-01-20T18:08:14.062Z,16.63
2019-01-20T18:10:43.484Z,16.07
2019-01-20T18:13:13.412Z,16.10
2019-01-20T18:15:43.422Z,16.03
2019-01-20T18:18:13.644Z,16.20
2019-01-20T18:20:42.959Z,15.40
2019-01-20T18:23:12.211Z,15.90
2019-01-20T18:25:41.468Z,16.40
2019-01-20T18:28:11.834Z,15.80
2019-01-20T18:30:41.084Z,17.30
2019-01-20T18:33:10.686Z,16.37
2019-01-20T18:35:40.671Z,16.03
2019-01-20T18:38:10.600Z,16.70
2019-01-20T18:40:39.920Z,16.40
2019-01-20T18:43:09.233Z,16.70
2019-01-20T18:45:38.483Z,16.43
2019-01-20T18:48:07.808Z,17.40
2019-01-20T18:50:38.208Z,16.77
2019-01-20T18:53:07.759Z,17.47
2019-01-20T18:55:37.086Z,19.37
2019-01-20T18:58:19.049Z,18.27
2019-01-20T19:00:48.384Z,19.17
2019-01-20T19:03:17.707Z,19.90
2019-01-20T19:05:46.974Z,18.43
2019-01-20T19:08:16.744Z,17.60
2019-01-20T19:10:46.007Z,18.57
2019-01-20T19:13:15.276Z,20.63
2019-01-20T19:15:44.579Z,20.03
2019-01-20T19:18:18.838Z,20.57
2019-01-20T19:20:45.431Z,20.40
2019-01-20T19:23:14.761Z,21.23
2019-01-20T19:25:44.116Z,24.93
2019-01-20T19:28:15.038Z,23.97
2019-01-20T19:30:44.584Z,27.87
2019-01-20T19:33:13.848Z,27.33
2019-01-20T19:35:43.497Z,24.03
2019-01-20T19:38:13.106Z,19.50
2019-01-20T19:40:42.365Z,17.63
2019-01-20T19:43:11.912Z,18.07
2019-01-20T19:45:41.222Z,18.33
2019-01-20T19:48:19.638Z,21.73
2019-01-20T19:50:41.868Z,19.63
2019-01-20T19:53:11.471Z,21.87
2019-01-20T19:55:41.084Z,20.73
2019-01-20T19:58:10.347Z,19.97
2019-01-20T20:00:40.339Z,26.30
2019-01-20T20:03:09.601Z,28.80
2019-01-20T20:05:38.919Z,16.30
2019-01-20T20:08:08.223Z,15.50
2019-01-20T20:10:37.731Z,15.97
2019-01-20T20:13:07.975Z,15.03
2019-01-20T20:15:37.295Z,15.30
2019-01-20T20:18:06.603Z,16.20
2019-01-20T20:20:36.247Z,14.73
2019-01-20T20:23:05.799Z,15.90
2019-01-20T20:25:35.975Z,16.33
2019-01-20T20:28:06.483Z,17.20
2019-01-20T20:30:35.741Z,19.07
2019-01-20T20:33:05.072Z,20.83
2019-01-20T20:35:34.327Z,23.97
2019-01-20T20:38:04.718Z,23.73
2019-01-20T20:40:35.711Z,19.80
2019-01-20T20:43:05.393Z,23.20
2019-01-20T20:45:35.223Z,26.97
2019-01-20T20:48:04.481Z,25.57
2019-01-20T20:50:34.358Z,24.27
2019-01-20T20:53:03.623Z,25.77
2019-01-20T20:55:33.127Z,28.83
2019-01-20T20:58:03.504Z,29.63
2019-01-20T21:00:36.828Z,45.53
2019-01-20T21:03:09.265Z,35.37
2019-01-20T21:05:38.523Z,34.97
2019-01-20T21:08:08.095Z,29.33
2019-01-20T21:10:37.388Z,24.43
2019-01-20T21:13:06.891Z,25.23
2019-01-20T21:15:36.218Z,26.13
2019-01-20T21:18:05.467Z,26.37
2019-01-20T21:20:36.011Z,26.37
2019-01-20T21:23:12.108Z,26.07
2019-01-20T21:25:36.764Z,27.00
2019-01-20T21:28:06.599Z,27.60
2019-01-20T21:30:37.395Z,26.80
2019-01-20T21:33:06.695Z,26.30
2019-01-20T21:35:37.423Z,22.93
2019-01-20T21:38:07.419Z,22.47
2019-01-20T21:40:37.040Z,20.90
2019-01-20T21:43:06.648Z,25.80
2019-01-20T21:45:35.952Z,24.07
2019-01-20T21:48:05.887Z,25.30
2019-01-20T21:50:35.152Z,24.23
2019-01-20T21:53:04.467Z,23.20
2019-01-20T21:55:33.727Z,22.53
2019-01-20T21:58:03.738Z,23.07
2019-01-20T22:00:33.037Z,20.77
2019-01-20T22:03:02.707Z,21.73
2019-01-20T22:05:32.306Z,21.53
2019-01-20T22:08:01.597Z,20.20
2019-01-20T22:10:31.116Z,22.50
2019-01-20T22:13:00.424Z,21.67
2019-01-20T22:15:30.347Z,20.50
2019-01-20T22:17:59.674Z,20.60
2019-01-20T22:20:28.936Z,20.00
2019-01-20T22:22:58.910Z,22.77
2019-01-20T22:25:28.784Z,22.43
2019-01-20T22:27:58.083Z,21.37
2019-01-20T22:30:27.760Z,21.77
2019-01-20T22:32:57.287Z,20.97
2019-01-20T22:35:27.611Z,21.83
2019-01-20T22:37:56.872Z,21.20
2019-01-20T22:40:26.595Z,20.33
2019-01-20T22:42:56.480Z,19.73
2019-01-20T22:45:26.208Z,18.30
2019-01-20T22:47:55.474Z,17.63
2019-01-20T22:50:24.809Z,19.83
2019-01-20T22:52:56.353Z,18.23
2019-01-20T22:55:25.887Z,19.30
2019-01-20T22:57:55.195Z,18.63
2019-01-20T23:00:35.004Z,19.50
2019-01-20T23:03:06.008Z,18.87
2019-01-20T23:05:35.931Z,17.37
2019-01-20T23:08:05.239Z,18.43
2019-01-20T23:10:34.496Z,18.70
2019-01-20T23:13:05.491Z,18.80
